createdAt,value
2022-11-07T00:00:21.926Z,7.07
2022-11-07T00:01:21.972Z,7.14
2022-11-07T00:02:21.943Z,7.20
2022-11-07T00:03:21.984Z,7.23
2022-11-07T00:04:21.866Z,7.24
2022-11-07T00:05:21.868Z,7.28
2022-11-07T00:06:21.850Z,7.31
2022-11-07T00:07:21.835Z,7.32
2022-11-07T00:08:21.823Z,7.38
2022-11-07T00:09:21.807Z,7.42
2022-11-07T00:10:21.796Z,7.45
2022-11-07T00:11:21.785Z,7.51
2022-11-07T00:12:21.768Z,7.54
2022-11-07T00:13:21.784Z,7.60
2022-11-07T00:14:21.741Z,7.67
2022-11-07T00:15:21.739Z,7.70
2022-11-07T00:16:21.717Z,7.73
2022-11-07T00:17:21.704Z,7.77
2022-11-07T00:18:21.695Z,7.77
2022-11-07T00:19:21.683Z,7.82
2022-11-07T00:20:21.666Z,7.82
2022-11-07T00:21:21.659Z,7.82
2022-11-07T00:22:21.644Z,7.80
2022-11-07T00:23:21.634Z,7.82
2022-11-07T00:24:21.616Z,7.83
2022-11-07T00:25:21.606Z,7.83
2022-11-07T00:26:21.601Z,7.83
2022-11-07T00:27:21.725Z,7.83
2022-11-07T00:28:21.570Z,7.82
2022-11-07T00:29:21.578Z,7.82
2022-11-07T00:30:21.535Z,7.77
2022-11-07T00:31:21.526Z,7.73
2022-11-07T00:32:21.514Z,7.72
2022-11-07T00:33:21.502Z,7.66
2022-11-07T00:34:21.492Z,7.61
2022-11-07T00:35:21.475Z,7.58
2022-11-07T00:36:21.465Z,7.54
2022-11-07T00:37:21.451Z,7.51
2022-11-07T00:38:21.436Z,7.48
2022-11-07T00:39:21.429Z,7.45
2022-11-07T00:40:21.418Z,7.43
2022-11-07T00:41:21.400Z,7.42
2022-11-07T00:42:21.389Z,7.38
2022-11-07T00:43:21.372Z,7.35
2022-11-07T00:44:21.362Z,7.33
2022-11-07T00:45:21.379Z,7.32
2022-11-07T00:46:21.341Z,7.31
2022-11-07T00:47:21.326Z,7.29
2022-11-07T00:48:21.320Z,7.24
2022-11-07T00:49:21.296Z,7.23
2022-11-07T00:50:21.285Z,7.23
2022-11-07T00:51:21.272Z,7.20
2022-11-07T00:52:21.259Z,7.18
2022-11-07T00:53:21.247Z,7.20
2022-11-07T00:54:21.235Z,7.17
2022-11-07T00:55:21.222Z,7.15
2022-11-07T00:56:21.213Z,7.14
2022-11-07T00:57:21.193Z,7.13
2022-11-07T00:58:21.181Z,7.13
2022-11-07T00:59:21.166Z,7.13
2022-11-07T01:00:21.155Z,7.14
2022-11-07T01:01:21.394Z,7.11
2022-11-07T01:02:21.251Z,7.10
2022-11-07T01:03:21.119Z,7.06
2022-11-07T01:04:21.108Z,7.02
2022-11-07T01:05:21.100Z,7.00
2022-11-07T01:06:21.083Z,6.97
2022-11-07T01:07:21.073Z,6.93
2022-11-07T01:08:21.056Z,6.89
2022-11-07T01:09:21.041Z,6.89
2022-11-07T01:10:21.036Z,6.85
2022-11-07T01:11:21.022Z,6.85
2022-11-07T01:12:21.008Z,6.85
2022-11-07T01:13:20.992Z,6.84
2022-11-07T01:14:20.980Z,6.84
2022-11-07T01:15:20.971Z,6.82
2022-11-07T01:16:20.961Z,6.79
2022-11-07T01:17:20.967Z,6.79
2022-11-07T01:18:20.928Z,6.79
2022-11-07T01:19:20.914Z,6.77
2022-11-07T01:20:20.902Z,6.78
2022-11-07T01:21:20.890Z,6.77
2022-11-07T01:22:20.876Z,6.78
2022-11-07T01:23:20.871Z,6.78
2022-11-07T01:24:20.853Z,6.77
2022-11-07T01:25:20.839Z,6.77
2022-11-07T01:26:20.827Z,6.77
2022-11-07T01:27:20.812Z,6.78
2022-11-07T01:28:20.805Z,6.77
2022-11-07T01:29:20.785Z,6.75
2022-11-07T01:30:20.782Z,6.77
2022-11-07T01:31:20.765Z,6.75
2022-11-07T01:32:20.752Z,6.78
2022-11-07T01:33:20.853Z,6.79
2022-11-07T01:34:20.736Z,6.82
2022-11-07T01:35:20.713Z,6.82
2022-11-07T01:36:20.701Z,6.84
2022-11-07T01:37:20.687Z,6.84
2022-11-07T01:38:20.678Z,6.82
2022-11-07T01:39:20.666Z,6.82
2022-11-07T01:40:20.646Z,6.81
2022-11-07T01:41:20.636Z,6.81
2022-11-07T01:42:20.620Z,6.82
2022-11-07T01:43:20.613Z,6.81
2022-11-07T01:44:20.597Z,6.81
2022-11-07T01:45:20.589Z,6.81
2022-11-07T01:46:20.571Z,6.81
2022-11-07T01:47:20.561Z,6.81
2022-11-07T01:48:20.546Z,6.81
2022-11-07T01:49:20.563Z,6.81
2022-11-07T01:50:23.898Z,6.79
2022-11-07T01:51:20.508Z,6.79
2022-11-07T01:52:20.492Z,6.81
2022-11-07T01:53:20.481Z,6.79
2022-11-07T01:54:20.464Z,6.78
2022-11-07T01:55:20.454Z,6.79
2022-11-07T01:56:20.443Z,6.77
2022-11-07T01:57:20.430Z,6.77
2022-11-07T01:58:20.414Z,6.77
2022-11-07T01:59:20.409Z,6.77
2022-11-07T02:00:20.396Z,6.77
2022-11-07T02:01:20.425Z,6.77
2022-11-07T02:02:20.466Z,6.77
2022-11-07T02:03:20.353Z,6.77
2022-11-07T02:04:20.353Z,6.75
2022-11-07T02:05:20.353Z,6.75
2022-11-07T02:06:20.319Z,6.74
2022-11-07T02:07:20.300Z,6.74
2022-11-07T02:08:20.293Z,6.72
2022-11-07T02:09:20.273Z,6.70
2022-11-07T02:10:20.261Z,6.70
2022-11-07T02:11:20.253Z,6.66
2022-11-07T02:12:20.234Z,6.66
2022-11-07T02:13:20.225Z,6.63
2022-11-07T02:14:20.211Z,6.60
2022-11-07T02:15:20.190Z,6.57
2022-11-07T02:16:20.193Z,6.56
2022-11-07T02:17:20.173Z,6.52
2022-11-07T02:18:20.158Z,6.51
2022-11-07T02:19:20.145Z,6.49
2022-11-07T02:20:20.132Z,6.48
2022-11-07T02:21:20.144Z,6.46
2022-11-07T02:22:20.103Z,6.44
2022-11-07T02:23:20.091Z,6.42
2022-11-07T02:24:20.078Z,6.41
2022-11-07T02:25:20.065Z,6.38
2022-11-07T02:26:20.051Z,6.36
2022-11-07T02:27:20.039Z,6.33
2022-11-07T02:28:20.025Z,6.30
2022-11-07T02:29:20.024Z,6.27
2022-11-07T02:30:20.000Z,6.27
2022-11-07T02:31:19.993Z,6.28
2022-11-07T02:32:19.976Z,6.28
2022-11-07T02:33:19.962Z,6.27
2022-11-07T02:34:19.953Z,6.26
2022-11-07T02:35:19.933Z,6.26
2022-11-07T02:36:19.933Z,6.26
2022-11-07T02:37:19.936Z,6.24
2022-11-07T02:38:19.897Z,6.20
2022-11-07T02:39:19.889Z,6.19
2022-11-07T02:40:19.873Z,6.17
2022-11-07T02:41:19.868Z,6.16
2022-11-07T02:42:19.849Z,6.14
2022-11-07T02:43:19.835Z,6.14
2022-11-07T02:44:19.820Z,6.12
2022-11-07T02:45:19.814Z,6.08
2022-11-07T02:46:19.792Z,6.08
2022-11-07T02:47:19.782Z,6.07
2022-11-07T02:48:19.773Z,6.02
2022-11-07T02:49:19.762Z,6.02
2022-11-07T02:50:19.743Z,6.01
2022-11-07T02:51:19.731Z,5.98
2022-11-07T02:52:19.717Z,5.97
2022-11-07T02:53:19.729Z,5.93
2022-11-07T02:54:19.699Z,5.91
2022-11-07T02:55:19.680Z,5.91
2022-11-07T02:56:19.670Z,5.91
2022-11-07T02:57:19.666Z,5.90
2022-11-07T02:58:19.643Z,5.89
2022-11-07T02:59:24.270Z,5.89
2022-11-07T03:00:20.649Z,5.84
2022-11-07T03:01:19.677Z,5.82
2022-11-07T03:02:19.693Z,5.79
2022-11-07T03:03:19.580Z,5.79
2022-11-07T03:04:19.564Z,5.69
2022-11-07T03:05:19.559Z,5.59
2022-11-07T03:06:19.541Z,5.51
2022-11-07T03:07:19.525Z,5.48
2022-11-07T03:08:19.512Z,5.43
2022-11-07T03:09:19.535Z,5.39
2022-11-07T03:10:19.490Z,5.33
2022-11-07T03:11:19.476Z,5.29
2022-11-07T03:12:19.464Z,5.26
2022-11-07T03:13:19.451Z,5.23
2022-11-07T03:14:19.499Z,5.20
2022-11-07T03:15:19.427Z,5.21
2022-11-07T03:16:19.412Z,5.21
2022-11-07T03:17:19.397Z,5.23
2022-11-07T03:18:19.389Z,5.25
2022-11-07T03:19:19.382Z,5.26
2022-11-07T03:20:19.362Z,5.25
2022-11-07T03:21:19.347Z,5.18
2022-11-07T03:22:19.333Z,5.14
2022-11-07T03:23:19.328Z,5.14
2022-11-07T03:24:19.310Z,5.15
2022-11-07T03:25:19.475Z,5.15
2022-11-07T03:26:19.284Z,5.14
2022-11-07T03:27:19.273Z,5.12
2022-11-07T03:28:19.267Z,5.14
2022-11-07T03:29:19.251Z,5.14
2022-11-07T03:30:19.236Z,5.20
2022-11-07T03:31:19.253Z,5.25
2022-11-07T03:32:19.205Z,5.25
2022-11-07T03:33:19.202Z,5.26
2022-11-07T03:34:19.182Z,5.23
2022-11-07T03:35:19.176Z,5.23
2022-11-07T03:36:19.156Z,5.23
2022-11-07T03:37:19.142Z,5.25
2022-11-07T03:38:19.131Z,5.25
2022-11-07T03:39:23.193Z,5.25
2022-11-07T03:40:20.144Z,5.21
2022-11-07T03:41:19.117Z,5.20
2022-11-07T03:42:19.080Z,5.20
2022-11-07T03:43:19.069Z,5.20
2022-11-07T03:44:19.055Z,5.20
2022-11-07T03:45:19.043Z,5.18
2022-11-07T03:46:19.043Z,5.18
2022-11-07T03:47:19.019Z,5.17
2022-11-07T03:48:19.003Z,5.12
2022-11-07T03:49:18.995Z,5.08
2022-11-07T03:50:18.982Z,5.00
2022-11-07T03:51:18.967Z,4.97
2022-11-07T03:52:18.950Z,4.97
2022-11-07T03:53:24.810Z,4.97
2022-11-07T03:54:19.964Z,4.96
2022-11-07T03:55:18.919Z,4.94
2022-11-07T03:56:18.900Z,4.93
2022-11-07T03:57:18.911Z,4.93
2022-11-07T03:58:18.878Z,4.89
2022-11-07T03:59:18.863Z,4.87
2022-11-07T04:00:18.849Z,4.82
2022-11-07T04:01:18.872Z,4.78
2022-11-07T04:02:19.152Z,4.77
2022-11-07T04:03:18.808Z,4.77
2022-11-07T04:04:18.806Z,4.71
2022-11-07T04:05:18.789Z,4.74
2022-11-07T04:06:18.773Z,4.75
2022-11-07T04:07:18.758Z,4.77
2022-11-07T04:08:18.747Z,4.73
2022-11-07T04:09:18.733Z,4.71
2022-11-07T04:10:18.721Z,4.68
2022-11-07T04:11:18.708Z,4.66
2022-11-07T04:12:18.694Z,4.62
2022-11-07T04:13:18.708Z,4.59
2022-11-07T04:14:18.671Z,4.56
2022-11-07T04:15:18.657Z,4.56
2022-11-07T04:16:18.645Z,4.52
2022-11-07T04:17:18.635Z,4.45
2022-11-07T04:18:18.621Z,4.38
2022-11-07T04:19:18.607Z,4.37
2022-11-07T04:20:18.590Z,4.34
2022-11-07T04:21:18.587Z,4.31
2022-11-07T04:22:18.579Z,4.30
2022-11-07T04:23:18.601Z,4.30
2022-11-07T04:24:18.538Z,4.30
2022-11-07T04:25:18.526Z,4.31
2022-11-07T04:26:18.509Z,4.31
2022-11-07T04:27:18.500Z,4.30
2022-11-07T04:28:18.487Z,4.30
2022-11-07T04:29:18.499Z,4.30
2022-11-07T04:30:18.468Z,4.28
2022-11-07T04:31:18.448Z,4.26
2022-11-07T04:32:18.440Z,4.28
2022-11-07T04:33:18.424Z,4.28
2022-11-07T04:34:18.410Z,4.31
2022-11-07T04:35:18.397Z,4.31
2022-11-07T04:36:18.397Z,4.31
2022-11-07T04:37:18.372Z,4.28
2022-11-07T04:38:18.361Z,4.23
2022-11-07T04:39:18.350Z,4.20
2022-11-07T04:40:18.330Z,4.19
2022-11-07T04:41:18.327Z,4.17
2022-11-07T04:42:18.306Z,4.17
2022-11-07T04:43:18.298Z,4.19
2022-11-07T04:44:18.282Z,4.20
2022-11-07T04:45:18.296Z,4.20
2022-11-07T04:46:18.258Z,4.19
2022-11-07T04:47:18.248Z,4.20
2022-11-07T04:48:18.237Z,4.19
2022-11-07T04:49:18.217Z,4.17
2022-11-07T04:50:18.212Z,4.19
2022-11-07T04:51:18.190Z,4.17
2022-11-07T04:52:18.183Z,4.17
2022-11-07T04:53:18.266Z,4.16
2022-11-07T04:54:18.150Z,4.17
2022-11-07T04:55:18.143Z,4.16
2022-11-07T04:56:18.128Z,4.16
2022-11-07T04:57:18.113Z,4.14
2022-11-07T04:58:18.099Z,4.14
2022-11-07T04:59:18.095Z,4.14
2022-11-07T05:00:18.077Z,4.13
2022-11-07T05:01:18.084Z,4.12
2022-11-07T05:02:18.172Z,4.12
2022-11-07T05:03:18.550Z,4.10
2022-11-07T05:04:18.023Z,4.12
2022-11-07T05:05:18.007Z,4.13
2022-11-07T05:06:17.996Z,4.13
2022-11-07T05:07:17.988Z,4.14
2022-11-07T05:08:17.972Z,4.14
2022-11-07T05:09:17.965Z,4.13
2022-11-07T05:10:17.949Z,4.17
2022-11-07T05:11:17.932Z,4.16
2022-11-07T05:12:17.922Z,4.14
2022-11-07T05:13:18.000Z,4.17
2022-11-07T05:14:17.894Z,4.22
2022-11-07T05:15:17.881Z,4.23
2022-11-07T05:16:17.875Z,4.26
2022-11-07T05:17:17.882Z,4.28
2022-11-07T05:18:17.847Z,4.26
2022-11-07T05:19:17.840Z,4.30
2022-11-07T05:20:17.816Z,4.32
2022-11-07T05:21:17.804Z,4.31
2022-11-07T05:22:17.787Z,4.34
2022-11-07T05:23:18.249Z,4.32
2022-11-07T05:24:17.762Z,4.31
2022-11-07T05:25:17.749Z,4.32
2022-11-07T05:26:17.733Z,4.34
2022-11-07T05:27:17.730Z,4.37
2022-11-07T05:28:19.847Z,4.40
2022-11-07T05:29:17.695Z,4.38
2022-11-07T05:30:17.681Z,4.37
2022-11-07T05:31:17.687Z,4.40
2022-11-07T05:32:17.669Z,4.40
2022-11-07T05:33:18.137Z,4.41
2022-11-07T05:34:17.630Z,4.44
2022-11-07T05:35:17.618Z,4.44
2022-11-07T05:36:17.611Z,4.45
2022-11-07T05:37:17.593Z,4.45
2022-11-07T05:38:17.579Z,4.45
2022-11-07T05:39:17.584Z,4.50
2022-11-07T05:40:17.554Z,4.55
2022-11-07T05:41:17.558Z,4.56
2022-11-07T05:42:17.527Z,4.60
2022-11-07T05:43:17.888Z,4.62
2022-11-07T05:44:17.506Z,4.60
2022-11-07T05:45:17.497Z,4.59
2022-11-07T05:46:17.477Z,4.60
2022-11-07T05:47:17.461Z,4.60
2022-11-07T05:48:17.451Z,4.60
2022-11-07T05:49:17.465Z,4.62
2022-11-07T05:50:17.424Z,4.63
2022-11-07T05:51:17.411Z,4.63
2022-11-07T05:52:17.406Z,4.62
2022-11-07T05:53:17.989Z,4.60
2022-11-07T05:54:17.372Z,4.62
2022-11-07T05:55:17.362Z,4.63
2022-11-07T05:56:17.354Z,4.66
2022-11-07T05:57:17.331Z,4.66
2022-11-07T05:58:17.321Z,4.63
2022-11-07T05:59:17.309Z,4.66
2022-11-07T06:00:17.300Z,4.62
2022-11-07T06:01:17.289Z,4.59
2022-11-07T06:02:17.436Z,4.59
2022-11-07T06:03:17.879Z,4.60
2022-11-07T06:04:17.240Z,4.59
2022-11-07T06:05:20.511Z,4.58
2022-11-07T06:06:18.244Z,4.56
2022-11-07T06:07:17.202Z,4.55
2022-11-07T06:08:17.189Z,4.50
2022-11-07T06:09:17.186Z,4.50
2022-11-07T06:10:17.167Z,4.48
2022-11-07T06:11:17.152Z,4.45
2022-11-07T06:12:17.140Z,4.45
2022-11-07T06:13:17.541Z,4.48
2022-11-07T06:14:17.120Z,4.44
2022-11-07T06:15:17.103Z,4.40
2022-11-07T06:16:17.090Z,4.34
2022-11-07T06:17:17.080Z,4.32
2022-11-07T06:18:17.061Z,4.35
2022-11-07T06:19:17.049Z,4.32
2022-11-07T06:20:17.034Z,4.34
2022-11-07T06:21:17.057Z,4.30
2022-11-07T06:22:17.023Z,4.26
2022-11-07T06:23:17.471Z,4.22
2022-11-07T06:24:16.989Z,4.17
2022-11-07T06:25:16.980Z,4.16
2022-11-07T06:26:16.962Z,4.14
2022-11-07T06:27:16.944Z,4.10
2022-11-07T06:28:16.936Z,4.04
2022-11-07T06:29:16.921Z,4.02
2022-11-07T06:30:16.906Z,4.01
2022-11-07T06:31:16.907Z,4.05
2022-11-07T06:32:16.882Z,4.08
2022-11-07T06:33:17.345Z,4.10
2022-11-07T06:34:16.855Z,4.12
2022-11-07T06:35:16.848Z,4.13
2022-11-07T06:36:16.835Z,4.13
2022-11-07T06:37:16.843Z,4.14
2022-11-07T06:38:16.803Z,4.19
2022-11-07T06:39:16.797Z,4.17
2022-11-07T06:40:16.780Z,4.16
2022-11-07T06:41:16.767Z,4.17
2022-11-07T06:42:16.754Z,4.17
2022-11-07T06:43:17.008Z,4.20
2022-11-07T06:44:16.737Z,4.19
2022-11-07T06:45:16.711Z,4.23
2022-11-07T06:46:16.699Z,4.26
2022-11-07T06:47:16.689Z,4.26
2022-11-07T06:48:16.679Z,4.31
2022-11-07T06:49:16.660Z,4.31
2022-11-07T06:50:16.646Z,4.30
2022-11-07T06:51:16.634Z,4.32
2022-11-07T06:52:16.629Z,4.34
2022-11-07T06:53:16.908Z,4.35
2022-11-07T06:54:16.599Z,4.35
2022-11-07T06:55:16.583Z,4.38
2022-11-07T06:56:16.576Z,4.42
2022-11-07T06:57:16.560Z,4.49
2022-11-07T06:58:16.551Z,4.50
2022-11-07T06:59:16.532Z,4.55
2022-11-07T07:00:16.523Z,4.56
2022-11-07T07:01:16.677Z,4.58
2022-11-07T07:02:36.817Z,4.62
2022-11-07T07:03:17.936Z,4.68
2022-11-07T07:04:16.467Z,4.70
2022-11-07T07:05:20.871Z,4.73
2022-11-07T07:06:16.442Z,4.78
2022-11-07T07:07:16.429Z,4.77
2022-11-07T07:08:16.412Z,4.80
2022-11-07T07:09:16.430Z,4.78
2022-11-07T07:10:16.391Z,4.75
2022-11-07T07:11:16.378Z,4.77
2022-11-07T07:12:16.361Z,4.77
2022-11-07T07:13:16.774Z,4.74
2022-11-07T07:14:16.345Z,4.75
2022-11-07T07:15:16.326Z,4.78
2022-11-07T07:16:16.312Z,4.87
2022-11-07T07:17:16.294Z,4.93
2022-11-07T07:18:16.286Z,4.99
2022-11-07T07:19:16.268Z,5.08
2022-11-07T07:20:16.258Z,5.15
2022-11-07T07:21:16.245Z,5.21
2022-11-07T07:22:16.230Z,5.29
2022-11-07T07:23:16.470Z,5.38
2022-11-07T07:24:16.204Z,5.46
2022-11-07T07:25:16.311Z,5.56
2022-11-07T07:26:16.176Z,5.69
2022-11-07T07:27:16.160Z,5.89
2022-11-07T07:28:16.147Z,6.17
2022-11-07T07:29:16.135Z,6.42
2022-11-07T07:30:16.125Z,6.63
2022-11-07T07:31:16.111Z,6.78
2022-11-07T07:32:16.094Z,6.85
2022-11-07T07:33:16.500Z,6.89
2022-11-07T07:34:16.071Z,6.99
2022-11-07T07:35:16.060Z,7.17
2022-11-07T07:36:20.485Z,7.33
2022-11-07T07:37:16.030Z,7.57
2022-11-07T07:38:16.021Z,7.83
2022-11-07T07:39:16.005Z,8.06
2022-11-07T07:40:15.993Z,8.24
2022-11-07T07:41:16.094Z,8.36
2022-11-07T07:42:15.968Z,8.55
2022-11-07T07:43:16.308Z,8.79
2022-11-07T07:44:15.936Z,8.94
2022-11-07T07:45:15.930Z,9.03
2022-11-07T07:46:15.909Z,8.97
2022-11-07T07:47:15.893Z,8.92
2022-11-07T07:48:15.881Z,8.73
2022-11-07T07:49:15.872Z,8.78
2022-11-07T07:50:15.854Z,8.87
2022-11-07T07:51:15.842Z,8.87
2022-11-07T07:52:15.843Z,8.82
2022-11-07T07:53:16.039Z,8.74
2022-11-07T07:54:15.800Z,8.55
2022-11-07T07:55:15.783Z,8.41
2022-11-07T07:56:15.773Z,8.23
2022-11-07T07:57:15.891Z,8.16
2022-11-07T07:58:15.751Z,8.06
2022-11-07T07:59:15.728Z,8.00
2022-11-07T08:00:15.726Z,7.91
2022-11-07T08:01:15.872Z,7.73
2022-11-07T08:02:15.784Z,7.69
2022-11-07T08:03:16.087Z,7.85
2022-11-07T08:04:15.671Z,7.97
2022-11-07T08:05:15.657Z,7.95
2022-11-07T08:06:15.649Z,8.08
2022-11-07T08:07:15.630Z,8.33
2022-11-07T08:08:15.621Z,8.44
2022-11-07T08:09:15.609Z,8.64
2022-11-07T08:10:40.189Z,8.63
2022-11-07T08:11:16.608Z,8.55
2022-11-07T08:12:15.565Z,8.64
2022-11-07T08:13:16.132Z,8.99
2022-11-07T08:14:15.538Z,9.43
2022-11-07T08:15:15.530Z,9.65
2022-11-07T08:16:15.529Z,9.89
2022-11-07T08:17:15.503Z,10.22
2022-11-07T08:18:15.513Z,10.75
2022-11-07T08:19:15.497Z,11.12
2022-11-07T08:20:15.463Z,10.99
2022-11-07T08:21:15.464Z,10.75
2022-11-07T08:22:15.437Z,10.74
2022-11-07T08:23:16.985Z,10.86
2022-11-07T08:24:15.412Z,10.82
2022-11-07T08:25:15.397Z,11.05
2022-11-07T08:26:15.392Z,11.23
2022-11-07T08:27:15.373Z,11.50
2022-11-07T08:28:15.360Z,11.77
2022-11-07T08:29:15.483Z,12.04
2022-11-07T08:30:18.069Z,12.27
2022-11-07T08:31:15.322Z,12.55
2022-11-07T08:32:15.320Z,12.93
2022-11-07T08:33:15.748Z,13.13
2022-11-07T08:34:15.283Z,13.12
2022-11-07T08:35:15.275Z,12.87
2022-11-07T08:36:15.261Z,12.80
2022-11-07T08:37:15.249Z,12.85
2022-11-07T08:38:15.236Z,12.70
2022-11-07T08:39:15.224Z,12.43
2022-11-07T08:40:15.205Z,12.04
2022-11-07T08:41:19.582Z,11.95
2022-11-07T08:42:16.223Z,11.83
2022-11-07T08:43:15.569Z,11.57
2022-11-07T08:44:15.158Z,11.52
2022-11-07T08:45:15.168Z,11.48
2022-11-07T08:46:15.133Z,11.65
2022-11-07T08:47:15.118Z,12.00
2022-11-07T08:48:15.103Z,12.17
2022-11-07T08:49:15.095Z,12.24
2022-11-07T08:50:15.078Z,12.21
2022-11-07T08:51:15.072Z,12.06
2022-11-07T08:52:15.053Z,12.15
2022-11-07T08:53:15.329Z,12.24
2022-11-07T08:54:15.026Z,12.07
2022-11-07T08:55:15.020Z,11.87
2022-11-07T08:56:15.025Z,11.55
2022-11-07T08:57:15.004Z,11.47
2022-11-07T08:58:14.982Z,11.35
2022-11-07T08:59:14.975Z,11.19
2022-11-07T09:00:14.953Z,11.19
2022-11-07T09:01:15.019Z,10.99
2022-11-07T09:03:44.680Z,10.69
2022-11-07T09:04:16.025Z,10.64
2022-11-07T09:05:14.896Z,10.97
2022-11-07T09:06:14.873Z,11.14
2022-11-07T09:07:14.860Z,11.17
2022-11-07T09:08:14.845Z,11.25
2022-11-07T09:09:16.809Z,11.22
2022-11-07T09:10:14.829Z,11.07
2022-11-07T09:11:14.808Z,10.99
2022-11-07T09:12:14.798Z,10.78
2022-11-07T09:13:15.382Z,10.64
2022-11-07T09:14:14.766Z,10.63
2022-11-07T09:15:14.765Z,10.57
2022-11-07T09:16:14.750Z,10.60
2022-11-07T09:17:14.831Z,10.59
2022-11-07T09:18:14.717Z,10.68
2022-11-07T09:19:14.711Z,10.79
2022-11-07T09:20:14.699Z,10.93
2022-11-07T09:21:20.707Z,11.08
2022-11-07T09:22:15.728Z,11.22
2022-11-07T09:23:15.140Z,11.35
2022-11-07T09:24:14.645Z,11.29
2022-11-07T09:25:14.633Z,11.35
2022-11-07T09:26:14.620Z,11.45
2022-11-07T09:27:14.603Z,11.59
2022-11-07T09:28:14.599Z,11.70
2022-11-07T09:29:14.577Z,11.68
2022-11-07T09:30:14.566Z,11.68
2022-11-07T09:31:14.551Z,11.66
2022-11-07T09:32:42.894Z,11.59
2022-11-07T09:33:16.006Z,11.45
2022-11-07T09:34:14.511Z,11.57
2022-11-07T09:35:14.531Z,11.63
2022-11-07T09:36:14.493Z,11.86
2022-11-07T09:37:14.476Z,12.17
2022-11-07T09:38:14.464Z,12.17
2022-11-07T09:39:14.463Z,12.28
2022-11-07T09:40:14.436Z,12.31
2022-11-07T09:41:14.423Z,12.27
2022-11-07T09:42:14.410Z,12.18
2022-11-07T09:43:14.861Z,12.03
2022-11-07T09:44:14.383Z,11.87
2022-11-07T09:45:14.636Z,11.83
2022-11-07T09:46:14.358Z,11.80
2022-11-07T09:47:14.350Z,11.78
2022-11-07T09:48:14.338Z,11.66
2022-11-07T09:49:14.344Z,11.66
2022-11-07T09:50:14.305Z,11.59
2022-11-07T09:51:14.294Z,11.54
2022-11-07T09:52:14.281Z,11.45
2022-11-07T09:53:14.798Z,11.48
2022-11-07T09:54:14.254Z,11.51
2022-11-07T09:55:14.246Z,11.51
2022-11-07T09:56:14.290Z,11.52
2022-11-07T09:57:14.485Z,11.48
2022-11-07T09:58:14.216Z,11.62
2022-11-07T09:59:14.598Z,11.73
2022-11-07T10:00:14.175Z,11.83
2022-11-07T10:01:14.215Z,11.86
2022-11-07T10:02:14.400Z,11.73
2022-11-07T10:03:14.533Z,11.57
2022-11-07T10:04:29.563Z,11.47
2022-11-07T10:05:15.345Z,11.40
2022-11-07T10:06:14.114Z,11.43
2022-11-07T10:07:14.090Z,11.36
2022-11-07T10:08:14.081Z,11.32
2022-11-07T10:09:14.061Z,11.26
2022-11-07T10:10:14.050Z,11.26
2022-11-07T10:11:14.040Z,11.37
2022-11-07T10:12:14.020Z,11.48
2022-11-07T10:13:14.389Z,11.63
2022-11-07T10:14:14.002Z,11.69
2022-11-07T10:15:13.992Z,11.70
2022-11-07T10:16:13.978Z,11.72
2022-11-07T10:17:13.963Z,11.78
2022-11-07T10:18:13.959Z,11.72
2022-11-07T10:19:13.931Z,11.78
2022-11-07T10:20:13.926Z,11.86
2022-11-07T10:21:37.270Z,11.99
2022-11-07T10:22:14.934Z,12.10
2022-11-07T10:23:14.273Z,12.24
2022-11-07T10:24:13.870Z,12.42
2022-11-07T10:25:13.870Z,12.42
2022-11-07T10:26:13.845Z,12.37
2022-11-07T10:27:13.835Z,12.32
2022-11-07T10:28:13.816Z,12.32
2022-11-07T10:29:13.805Z,12.25
2022-11-07T10:30:13.797Z,12.29
2022-11-07T10:31:13.780Z,12.10
2022-11-07T10:32:13.771Z,12.04
2022-11-07T10:33:14.111Z,11.87
2022-11-07T10:34:13.742Z,11.81
2022-11-07T10:35:13.724Z,11.83
2022-11-07T10:36:13.717Z,11.72
2022-11-07T10:37:13.721Z,11.73
2022-11-07T10:38:13.689Z,11.73
2022-11-07T10:39:13.677Z,11.83
2022-11-07T10:40:13.664Z,11.86
2022-11-07T10:41:13.651Z,11.88
2022-11-07T10:42:13.641Z,11.97
2022-11-07T10:43:14.016Z,12.12
2022-11-07T10:44:13.712Z,12.15
2022-11-07T10:45:13.600Z,12.20
2022-11-07T10:46:13.589Z,12.20
2022-11-07T10:47:13.580Z,12.18
2022-11-07T10:48:13.884Z,12.07
2022-11-07T10:49:13.550Z,12.17
2022-11-07T10:50:13.534Z,12.25
2022-11-07T10:51:13.527Z,12.32
2022-11-07T10:52:13.513Z,12.39
2022-11-07T10:53:13.520Z,12.43
2022-11-07T10:54:15.904Z,12.49
2022-11-07T10:55:13.477Z,12.49
2022-11-07T10:56:13.467Z,12.47
2022-11-07T10:57:13.454Z,12.49
2022-11-07T10:58:13.805Z,12.55
2022-11-07T10:59:13.432Z,12.64
2022-11-07T11:00:13.409Z,12.70
2022-11-07T11:01:13.464Z,12.79
2022-11-07T11:02:13.427Z,12.76
2022-11-07T11:03:13.384Z,12.78
2022-11-07T11:04:13.361Z,12.78
2022-11-07T11:05:13.345Z,12.82
2022-11-07T11:06:13.360Z,12.87
2022-11-07T11:07:13.324Z,12.90
2022-11-07T11:08:13.813Z,12.85
2022-11-07T11:09:13.323Z,12.75
2022-11-07T11:10:13.286Z,12.79
2022-11-07T11:11:13.272Z,12.83
2022-11-07T11:12:13.262Z,12.76
2022-11-07T11:13:13.244Z,12.75
2022-11-07T11:14:13.239Z,12.79
2022-11-07T11:15:13.301Z,12.90
2022-11-07T11:16:13.203Z,12.98
2022-11-07T11:17:13.267Z,13.08
2022-11-07T11:18:13.573Z,13.16
2022-11-07T11:19:13.170Z,13.25
2022-11-07T11:20:13.157Z,13.30
2022-11-07T11:21:13.144Z,13.18
2022-11-07T11:22:13.124Z,13.22
2022-11-07T11:23:13.531Z,13.23
2022-11-07T11:24:13.104Z,13.20
2022-11-07T11:25:13.119Z,13.22
2022-11-07T11:26:13.077Z,13.30
2022-11-07T11:27:13.065Z,13.28
2022-11-07T11:28:13.422Z,13.27
2022-11-07T11:29:13.035Z,13.30
2022-11-07T11:30:13.029Z,13.41
2022-11-07T11:31:13.021Z,13.41
2022-11-07T11:32:13.000Z,13.42
2022-11-07T11:33:13.092Z,13.42
2022-11-07T11:34:12.972Z,13.38
2022-11-07T11:35:12.962Z,13.23
2022-11-07T11:36:12.949Z,13.27
2022-11-07T11:37:12.939Z,13.31
2022-11-07T11:38:12.919Z,13.31
2022-11-07T11:39:12.908Z,13.37
2022-11-07T11:40:12.897Z,13.39
2022-11-07T11:41:12.928Z,13.41
2022-11-07T11:42:12.869Z,13.31
2022-11-07T11:43:12.970Z,13.12
2022-11-07T11:44:12.843Z,13.09
2022-11-07T11:45:12.838Z,13.09
2022-11-07T11:46:12.813Z,13.05
2022-11-07T11:47:12.801Z,13.09
2022-11-07T11:48:12.789Z,13.03
2022-11-07T11:49:12.787Z,12.97
2022-11-07T11:50:12.787Z,12.87
2022-11-07T11:51:12.755Z,12.90
2022-11-07T11:52:12.735Z,12.93
2022-11-07T11:53:12.735Z,13.01
2022-11-07T11:54:12.711Z,13.11
2022-11-07T11:55:12.699Z,13.19
2022-11-07T11:56:12.689Z,13.23
2022-11-07T11:57:12.699Z,13.35
2022-11-07T11:58:12.656Z,13.35
2022-11-07T11:59:12.649Z,13.37
2022-11-07T12:00:12.633Z,13.38
2022-11-07T12:01:12.704Z,13.28
2022-11-07T12:02:12.652Z,13.23
2022-11-07T12:03:12.612Z,13.18
2022-11-07T12:04:12.586Z,13.16
2022-11-07T12:05:12.586Z,13.15
2022-11-07T12:06:12.566Z,13.11
2022-11-07T12:07:12.544Z,13.11
2022-11-07T12:08:12.531Z,13.13
2022-11-07T12:09:17.358Z,13.11
2022-11-07T12:10:12.505Z,13.12
2022-11-07T12:11:12.495Z,13.15
2022-11-07T12:12:12.476Z,13.27
2022-11-07T12:13:12.490Z,13.37
2022-11-07T12:14:12.452Z,13.38
2022-11-07T12:15:12.441Z,13.39
2022-11-07T12:16:12.431Z,13.52
2022-11-07T12:17:12.426Z,13.49
2022-11-07T12:18:12.398Z,13.53
2022-11-07T12:19:12.387Z,13.54
2022-11-07T12:20:12.378Z,13.63
2022-11-07T12:21:12.366Z,13.78
2022-11-07T12:22:12.351Z,13.90
2022-11-07T12:23:12.338Z,13.89
2022-11-07T12:24:12.325Z,13.95
2022-11-07T12:25:12.313Z,13.96
2022-11-07T12:26:12.303Z,13.89
2022-11-07T12:27:12.290Z,13.81
2022-11-07T12:28:12.275Z,13.74
2022-11-07T12:29:12.290Z,13.71
2022-11-07T12:30:12.248Z,13.57
2022-11-07T12:31:12.251Z,13.57
2022-11-07T12:32:12.221Z,13.56
2022-11-07T12:33:12.208Z,13.62
2022-11-07T12:34:12.200Z,13.75
2022-11-07T12:35:12.193Z,13.75
2022-11-07T12:36:12.169Z,13.72
2022-11-07T12:37:12.155Z,13.65
2022-11-07T12:38:12.147Z,13.59
2022-11-07T12:39:12.131Z,13.67
2022-11-07T12:40:12.227Z,13.74
2022-11-07T12:41:12.106Z,13.78
2022-11-07T12:42:12.097Z,13.81
2022-11-07T12:43:12.079Z,13.70
2022-11-07T12:44:12.068Z,13.60
2022-11-07T12:45:12.087Z,13.62
2022-11-07T12:46:12.048Z,13.57
2022-11-07T12:47:12.025Z,13.59
2022-11-07T12:48:13.627Z,13.65
2022-11-07T12:49:12.009Z,13.75
2022-11-07T12:50:11.991Z,13.86
2022-11-07T12:51:11.980Z,13.95
2022-11-07T12:52:11.973Z,14.03
2022-11-07T12:53:11.947Z,14.10
2022-11-07T12:54:16.401Z,14.12
2022-11-07T12:55:11.925Z,14.12
2022-11-07T12:56:11.911Z,14.04
2022-11-07T12:57:11.896Z,13.97
2022-11-07T12:58:11.933Z,13.92
2022-11-07T12:59:11.872Z,13.93
2022-11-07T13:00:11.866Z,13.96
2022-11-07T13:01:11.963Z,14.07
2022-11-07T13:02:12.099Z,14.14
2022-11-07T13:03:11.826Z,14.23
2022-11-07T13:04:11.813Z,14.22
2022-11-07T13:05:11.792Z,14.25
2022-11-07T13:06:11.793Z,14.29
2022-11-07T13:07:11.771Z,14.28
2022-11-07T13:08:11.819Z,14.29
2022-11-07T13:09:11.742Z,14.22